sensor_id;sensor_type;location;lat;lon;timestamp;pressure;altitude;pressure_sealevel;temperature;humidity
6435;BME280;3250;42.694;23.278;2023-10-08T00:00:31;95282.28;;;12.56;61.61
6435;BME280;3250;42.694;23.278;2023-10-08T00:03:15;95283.16;;;12.50;62.04
6435;BME280;3250;42.694;23.278;2023-10-08T00:05:43;95279.09;;;12.47;62.07
6435;BME280;3250;42.694;23.278;2023-10-08T00:08:08;95277.47;;;12.46;62.31
6435;BME280;3250;42.694;23.278;2023-10-08T00:10:40;95273.44;;;12.43;62.45
6435;BME280;3250;42.694;23.278;2023-10-08T00:13:15;95255.22;;;12.35;62.54
6435;BME280;3250;42.694;23.278;2023-10-08T00:15:42;95270.59;;;12.45;62.05
6435;BME280;3250;42.694;23.278;2023-10-08T00:18:22;95262.06;;;12.43;62.28
6435;BME280;3250;42.694;23.278;2023-10-08T00:20:48;95260.03;;;12.45;62.07
6435;BME280;3250;42.694;23.278;2023-10-08T00:23:32;95256.59;;;12.44;62.20
6435;BME280;3250;42.694;23.278;2023-10-08T00:26:00;95257.97;;;12.47;62.31
6435;BME280;3250;42.694;23.278;2023-10-08T00:28:31;95231.88;;;12.32;62.54
6435;BME280;3250;42.694;23.278;2023-10-08T00:30:58;95239.38;;;12.35;63.09
6435;BME280;3250;42.694;23.278;2023-10-08T00:33:30;95251.31;;;12.38;62.88
6435;BME280;3250;42.694;23.278;2023-10-08T00:35:56;95255.78;;;12.37;62.78
6435;BME280;3250;42.694;23.278;2023-10-08T00:38:21;95246.63;;;12.40;62.76
6435;BME280;3250;42.694;23.278;2023-10-08T00:40:47;95252.31;;;12.43;62.38
6435;BME280;3250;42.694;23.278;2023-10-08T00:43:32;95227.44;;;12.26;62.09
6435;BME280;3250;42.694;23.278;2023-10-08T00:46:04;95253.25;;;12.56;61.54
6435;BME280;3250;42.694;23.278;2023-10-08T00:48:42;95240.66;;;12.58;61.14
6435;BME280;3250;42.694;23.278;2023-10-08T00:51:09;95248.69;;;12.69;60.73
6435;BME280;3250;42.694;23.278;2023-10-08T00:54:03;95247.03;;;12.75;61.00
6435;BME280;3250;42.694;23.278;2023-10-08T00:56:33;95215.03;;;12.58;60.75
6435;BME280;3250;42.694;23.278;2023-10-08T00:59:17;95241.53;;;12.76;60.53
6435;BME280;3250;42.694;23.278;2023-10-08T01:01:47;95240.13;;;12.74;60.78
6435;BME280;3250;42.694;23.278;2023-10-08T01:04:31;95240.13;;;12.74;60.56
6435;BME280;3250;42.694;23.278;2023-10-08T01:07:01;95227.56;;;12.69;60.84
6435;BME280;3250;42.694;23.278;2023-10-08T01:09:35;95239.78;;;12.64;60.78
6435;BME280;3250;42.694;23.278;2023-10-08T01:14:48;95234.97;;;12.54;61.11
6435;BME280;3250;42.694;23.278;2023-10-08T01:17:16;95236.63;;;12.48;61.40
6435;BME280;3250;42.694;23.278;2023-10-08T01:19:43;95229.22;;;12.32;60.80
6435;BME280;3250;42.694;23.278;2023-10-08T01:22:14;95235.06;;;12.41;60.53
6435;BME280;3250;42.694;23.278;2023-10-08T01:24:47;95234.09;;;12.29;60.65
6435;BME280;3250;42.694;23.278;2023-10-08T01:27:15;95231.06;;;12.32;61.16
6435;BME280;3250;42.694;23.278;2023-10-08T01:29:47;95237.56;;;12.29;61.09
6435;BME280;3250;42.694;23.278;2023-10-08T01:32:12;95233.94;;;12.24;61.36
6435;BME280;3250;42.694;23.278;2023-10-08T01:34:41;95241.06;;;12.23;61.27
6435;BME280;3250;42.694;23.278;2023-10-08T01:37:12;95237.78;;;12.28;61.15
6435;BME280;3250;42.694;23.278;2023-10-08T01:39:38;95245.72;;;12.21;61.50
6435;BME280;3250;42.694;23.278;2023-10-08T01:42:11;95243.72;;;12.17;61.31
6435;BME280;3250;42.694;23.278;2023-10-08T01:44:47;95240.28;;;12.16;61.53
6435;BME280;3250;42.694;23.278;2023-10-08T01:47:14;95244.34;;;12.12;61.83
6435;BME280;3250;42.694;23.278;2023-10-08T01:49:43;95236.47;;;12.05;62.17
6435;BME280;3250;42.694;23.278;2023-10-08T01:52:12;95224.78;;;11.88;62.25
6435;BME280;3250;42.694;23.278;2023-10-08T01:54:47;95236.94;;;11.89;62.58
6435;BME280;3250;42.694;23.278;2023-10-08T01:57:14;95241.63;;;11.87;62.72
6435;BME280;3250;42.694;23.278;2023-10-08T01:59:40;95245.50;;;11.85;62.90
6435;BME280;3250;42.694;23.278;2023-10-08T02:02:06;95240.03;;;11.80;63.37
6435;BME280;3250;42.694;23.278;2023-10-08T02:04:33;95237.59;;;11.71;63.99
6435;BME280;3250;42.694;23.278;2023-10-08T02:07:01;95234.53;;;11.68;63.97
6435;BME280;3250;42.694;23.278;2023-10-08T02:09:26;95235.38;;;11.62;65.08
6435;BME280;3250;42.694;23.278;2023-10-08T02:11:52;95230.75;;;11.57;64.79
6435;BME280;3250;42.694;23.278;2023-10-08T02:14:22;95228.31;;;11.56;65.24
6435;BME280;3250;42.694;23.278;2023-10-08T02:16:49;95222.47;;;11.47;65.42
6435;BME280;3250;42.694;23.278;2023-10-08T02:19:15;95226.13;;;11.40;65.83
6435;BME280;3250;42.694;23.278;2023-10-08T02:21:44;95229.97;;;11.37;66.05
6435;BME280;3250;42.694;23.278;2023-10-08T02:24:11;95225.53;;;11.38;65.97
6435;BME280;3250;42.694;23.278;2023-10-08T02:26:38;95221.88;;;11.32;66.40
6435;BME280;3250;42.694;23.278;2023-10-08T02:29:04;95227.16;;;11.32;66.48
6435;BME280;3250;42.694;23.278;2023-10-08T02:31:37;95224.13;;;11.28;66.72
6435;BME280;3250;42.694;23.278;2023-10-08T02:34:04;95220.50;;;11.23;67.00
6435;BME280;3250;42.694;23.278;2023-10-08T02:36:29;95220.28;;;11.18;67.36
6435;BME280;3250;42.694;23.278;2023-10-08T02:38:56;95222.13;;;11.11;67.10
6435;BME280;3250;42.694;23.278;2023-10-08T02:41:21;95215.22;;;11.10;67.50
6435;BME280;3250;42.694;23.278;2023-10-08T02:43:49;95220.09;;;11.06;67.58
6435;BME280;3250;42.694;23.278;2023-10-08T02:46:15;95229.41;;;11.09;67.39
6435;BME280;3250;42.694;23.278;2023-10-08T02:48:41;95224.16;;;11.02;67.93
6435;BME280;3250;42.694;23.278;2023-10-08T02:51:12;95227.41;;;10.98;68.23
6435;BME280;3250;42.694;23.278;2023-10-08T02:53:40;95224.56;;;10.92;68.64
6435;BME280;3250;42.694;23.278;2023-10-08T02:56:09;95233.28;;;10.93;68.41
6435;BME280;3250;42.694;23.278;2023-10-08T02:58:41;95230.84;;;10.91;68.71
6435;BME280;3250;42.694;23.278;2023-10-08T03:01:09;95242.00;;;10.93;68.80
6435;BME280;3250;42.694;23.278;2023-10-08T03:03:41;95236.91;;;10.92;68.69
6435;BME280;3250;42.694;23.278;2023-10-08T03:06:12;95229.00;;;10.92;68.58
6435;BME280;3250;42.694;23.278;2023-10-08T03:08:40;95229.84;;;10.86;68.86
6435;BME280;3250;42.694;23.278;2023-10-08T03:11:10;95222.53;;;10.81;69.20
6435;BME280;3250;42.694;23.278;2023-10-08T03:13:45;95227.78;;;10.81;69.23
6435;BME280;3250;42.694;23.278;2023-10-08T03:16:17;95226.59;;;10.77;69.69
6435;BME280;3250;42.694;23.278;2023-10-08T03:18:46;95222.13;;;10.84;68.99
6435;BME280;3250;42.694;23.278;2023-10-08T03:21:15;95223.56;;;10.87;69.30
6435;BME280;3250;42.694;23.278;2023-10-08T03:23:58;95222.94;;;10.85;68.66
6435;BME280;3250;42.694;23.278;2023-10-08T03:26:23;95206.94;;;10.73;69.17
6435;BME280;3250;42.694;23.278;2023-10-08T03:29:05;95221.13;;;10.79;69.39
6435;BME280;3250;42.694;23.278;2023-10-08T03:31:33;95221.75;;;10.81;68.80
6435;BME280;3250;42.694;23.278;2023-10-08T03:34:15;95222.34;;;10.89;68.38
6435;BME280;3250;42.694;23.278;2023-10-08T03:36:43;95222.13;;;10.91;68.63
6435;BME280;3250;42.694;23.278;2023-10-08T03:39:16;95208.16;;;10.90;68.74
6435;BME280;3250;42.694;23.278;2023-10-08T03:41:46;95210.78;;;10.84;68.88
6435;BME280;3250;42.694;23.278;2023-10-08T03:44:23;95202.91;;;10.77;69.12
6435;BME280;3250;42.694;23.278;2023-10-08T03:46:50;95197.00;;;10.75;69.15
6435;BME280;3250;42.694;23.278;2023-10-08T03:49:17;95202.28;;;10.69;69.43
6435;BME280;3250;42.694;23.278;2023-10-08T03:51:46;95197.22;;;10.61;69.68
6435;BME280;3250;42.694;23.278;2023-10-08T03:54:11;95200.06;;;10.52;70.00
6435;BME280;3250;42.694;23.278;2023-10-08T03:56:40;95198.25;;;10.53;70.23
6435;BME280;3250;42.694;23.278;2023-10-08T03:59:14;95196.19;;;10.48;70.30
6435;BME280;3250;42.694;23.278;2023-10-08T04:02:00;95191.13;;;10.47;70.57
6435;BME280;3250;42.694;23.278;2023-10-08T04:04:34;95190.53;;;10.45;70.62
6435;BME280;3250;42.694;23.278;2023-10-08T04:07:24;95186.28;;;10.37;70.79
6435;BME280;3250;42.694;23.278;2023-10-08T04:10:10;95171.69;;;10.21;71.46
6435;BME280;3250;42.694;23.278;2023-10-08T04:12:37;95188.06;;;10.30;71.14
6435;BME280;3250;42.694;23.278;2023-10-08T04:15:09;95188.69;;;10.26;71.51
6435;BME280;3250;42.694;23.278;2023-10-08T04:17:37;95192.94;;;10.20;71.60
6435;BME280;3250;42.694;23.278;2023-10-08T04:20:13;95199.22;;;10.19;71.80
6435;BME280;3250;42.694;23.278;2023-10-08T04:22:59;95198.78;;;10.22;72.03
6435;BME280;3250;42.694;23.278;2023-10-08T04:25:29;95171.22;;;10.05;72.00
6435;BME280;3250;42.694;23.278;2023-10-08T04:27:59;95186.44;;;10.23;71.92
6435;BME280;3250;42.694;23.278;2023-10-08T04:30:43;95191.09;;;10.20;72.10
6435;BME280;3250;42.694;23.278;2023-10-08T04:33:12;95189.28;;;10.21;72.20
6435;BME280;3250;42.694;23.278;2023-10-08T04:35:41;95194.53;;;10.21;71.81
6435;BME280;3250;42.694;23.278;2023-10-08T04:38:14;95186.41;;;10.16;72.28
6435;BME280;3250;42.694;23.278;2023-10-08T04:40:42;95178.09;;;10.12;72.81
6435;BME280;3250;42.694;23.278;2023-10-08T04:43:23;95184.88;;;10.28;72.77
6435;BME280;3250;42.694;23.278;2023-10-08T04:45:58;95190.13;;;10.28;72.47
6435;BME280;3250;42.694;23.278;2023-10-08T04:48:25;95201.84;;;10.32;72.44
6435;BME280;3250;42.694;23.278;2023-10-08T04:50:54;95181.19;;;10.23;72.77
6435;BME280;3250;42.694;23.278;2023-10-08T04:53:27;95174.31;;;10.21;72.60
6435;BME280;3250;42.694;23.278;2023-10-08T04:56:00;95196.81;;;10.37;72.81
6435;BME280;3250;42.694;23.278;2023-10-08T04:58:41;95196.63;;;10.45;72.34
6435;BME280;3250;42.694;23.278;2023-10-08T05:01:07;95202.50;;;10.61;71.65
6435;BME280;3250;42.694;23.278;2023-10-08T05:06:27;95206.31;;;11.04;70.84
6435;BME280;3250;42.694;23.278;2023-10-08T05:11:37;95212.56;;;11.94;66.57
6435;BME280;3250;42.694;23.278;2023-10-08T05:14:15;95189.22;;;11.97;65.29
6435;BME280;3250;42.694;23.278;2023-10-08T05:16:55;95195.41;;;12.16;64.99
6435;BME280;3250;42.694;23.278;2023-10-08T05:19:41;95217.44;;;12.35;65.52
6435;BME280;3250;42.694;23.278;2023-10-08T05:22:12;95213.63;;;12.87;64.62
6435;BME280;3250;42.694;23.278;2023-10-08T05:25:03;95218.94;;;13.67;61.42
6435;BME280;3250;42.694;23.278;2023-10-08T05:27:34;95213.53;;;14.58;58.80
6435;BME280;3250;42.694;23.278;2023-10-08T05:30:15;95219.25;;;16.18;53.74
6435;BME280;3250;42.694;23.278;2023-10-08T05:32:42;95228.16;;;17.86;50.22
6435;BME280;3250;42.694;23.278;2023-10-08T05:35:27;95231.34;;;19.76;45.66
6435;BME280;3250;42.694;23.278;2023-10-08T05:38:11;95228.34;;;21.48;41.11
6435;BME280;3250;42.694;23.278;2023-10-08T05:41:03;95231.94;;;23.21;36.62
6435;BME280;3250;42.694;23.278;2023-10-08T05:43:34;95227.88;;;24.58;33.84
6435;BME280;3250;42.694;23.278;2023-10-08T05:46:06;95224.47;;;25.92;31.09
6435;BME280;3250;42.694;23.278;2023-10-08T05:49:01;95227.56;;;27.17;28.38
6435;BME280;3250;42.694;23.278;2023-10-08T05:51:40;95239.00;;;28.12;26.97
6435;BME280;3250;42.694;23.278;2023-10-08T05:56:53;95248.56;;;29.75;24.71
6435;BME280;3250;42.694;23.278;2023-10-08T05:59:48;95248.81;;;30.46;23.87
6435;BME280;3250;42.694;23.278;2023-10-08T06:02:30;95253.25;;;30.88;23.09
6435;BME280;3250;42.694;23.278;2023-10-08T06:05:00;95235.13;;;31.42;21.96
6435;BME280;3250;42.694;23.278;2023-10-08T06:10:25;95233.66;;;32.11;21.48
6435;BME280;3250;42.694;23.278;2023-10-08T06:15:50;95227.72;;;33.43;19.92
6435;BME280;3250;42.694;23.278;2023-10-08T06:18:17;95230.44;;;33.98;19.56
6435;BME280;3250;42.694;23.278;2023-10-08T06:20:47;95236.84;;;34.50;18.95
6435;BME280;3250;42.694;23.278;2023-10-08T06:23:14;95220.91;;;34.87;18.37
6435;BME280;3250;42.694;23.278;2023-10-08T06:25:49;95222.69;;;34.79;18.50
6435;BME280;3250;42.694;23.278;2023-10-08T06:28:20;95219.75;;;35.23;18.36
6435;BME280;3250;42.694;23.278;2023-10-08T06:30:46;95222.91;;;35.79;17.36
6435;BME280;3250;42.694;23.278;2023-10-08T06:33:12;95233.22;;;36.27;17.29
6435;BME280;3250;42.694;23.278;2023-10-08T06:35:38;95221.03;;;35.44;17.59
6435;BME280;3250;42.694;23.278;2023-10-08T06:38:10;95228.31;;;35.75;17.32
6435;BME280;3250;42.694;23.278;2023-10-08T06:40:36;95220.31;;;35.86;17.09
6435;BME280;3250;42.694;23.278;2023-10-08T06:43:02;95226.13;;;35.65;17.16
6435;BME280;3250;42.694;23.278;2023-10-08T06:45:46;95228.63;;;36.12;17.02
6435;BME280;3250;42.694;23.278;2023-10-08T06:48:12;95220.81;;;36.14;16.64
6435;BME280;3250;42.694;23.278;2023-10-08T06:50:49;95208.75;;;34.68;17.56
6435;BME280;3250;42.694;23.278;2023-10-08T06:53:15;95216.00;;;34.61;17.94
6435;BME280;3250;42.694;23.278;2023-10-08T06:55:46;95216.16;;;34.05;18.64
6435;BME280;3250;42.694;23.278;2023-10-08T06:58:14;95219.91;;;33.57;19.36
6435;BME280;3250;42.694;23.278;2023-10-08T07:00:40;95210.31;;;32.95;19.98
6435;BME280;3250;42.694;23.278;2023-10-08T07:03:12;95206.44;;;32.35;20.57
6435;BME280;3250;42.694;23.278;2023-10-08T07:05:42;95201.56;;;31.71;21.62
6435;BME280;3250;42.694;23.278;2023-10-08T07:08:10;95192.50;;;30.84;22.36
6435;BME280;3250;42.694;23.278;2023-10-08T07:10:39;95191.00;;;30.07;23.71
6435;BME280;3250;42.694;23.278;2023-10-08T07:13:07;95200.94;;;29.94;24.02
6435;BME280;3250;42.694;23.278;2023-10-08T07:15:34;95191.66;;;29.87;24.29
6435;BME280;3250;42.694;23.278;2023-10-08T07:18:05;95189.34;;;29.51;24.13
6435;BME280;3250;42.694;23.278;2023-10-08T07:20:45;95193.56;;;29.40;24.39
6435;BME280;3250;42.694;23.278;2023-10-08T07:23:11;95188.75;;;29.19;25.74
6435;BME280;3250;42.694;23.278;2023-10-08T07:25:59;95187.41;;;28.65;25.78
6435;BME280;3250;42.694;23.278;2023-10-08T07:28:37;95179.06;;;28.36;26.34
6435;BME280;3250;42.694;23.278;2023-10-08T07:31:05;95181.09;;;28.22;24.25
6435;BME280;3250;42.694;23.278;2023-10-08T07:33:30;95176.31;;;28.19;26.38
6435;BME280;3250;42.694;23.278;2023-10-08T07:36:01;95168.59;;;28.12;26.50
6435;BME280;3250;42.694;23.278;2023-10-08T07:38:40;95172.41;;;28.11;25.04
6435;BME280;3250;42.694;23.278;2023-10-08T07:41:10;95154.88;;;28.00;25.29
6435;BME280;3250;42.694;23.278;2023-10-08T07:43:38;95161.34;;;28.21;23.96
6435;BME280;3250;42.694;23.278;2023-10-08T07:46:04;95149.59;;;28.34;22.57
6435;BME280;3250;42.694;23.278;2023-10-08T07:48:31;95148.34;;;28.49;23.09
6435;BME280;3250;42.694;23.278;2023-10-08T07:50:56;95152.13;;;28.31;22.41
6435;BME280;3250;42.694;23.278;2023-10-08T07:53:25;95157.22;;;28.32;22.95
6435;BME280;3250;42.694;23.278;2023-10-08T07:55:51;95150.53;;;28.30;22.59
6435;BME280;3250;42.694;23.278;2023-10-08T07:58:17;95150.50;;;28.21;23.27
6435;BME280;3250;42.694;23.278;2023-10-08T08:00:44;95151.50;;;28.34;23.14
6435;BME280;3250;42.694;23.278;2023-10-08T08:03:20;95132.38;;;28.39;22.56
6435;BME280;3250;42.694;23.278;2023-10-08T08:05:47;95146.91;;;28.60;22.16
6435;BME280;3250;42.694;23.278;2023-10-08T08:08:13;95149.31;;;28.62;22.62
6435;BME280;3250;42.694;23.278;2023-10-08T08:10:44;95141.03;;;28.75;22.57
6435;BME280;3250;42.694;23.278;2023-10-08T08:13:09;95134.22;;;28.78;22.04
6435;BME280;3250;42.694;23.278;2023-10-08T08:15:35;95130.19;;;28.75;21.87
6435;BME280;3250;42.694;23.278;2023-10-08T08:18:07;95132.22;;;28.35;22.63
6435;BME280;3250;42.694;23.278;2023-10-08T08:20:35;95134.38;;;27.76;22.66
6435;BME280;3250;42.694;23.278;2023-10-08T08:23:05;95119.53;;;27.57;23.27
6435;BME280;3250;42.694;23.278;2023-10-08T08:25:40;95133.75;;;27.71;22.48
6435;BME280;3250;42.694;23.278;2023-10-08T08:28:31;95127.72;;;27.52;23.61
6435;BME280;3250;42.694;23.278;2023-10-08T08:31:02;95126.41;;;27.71;23.60
6435;BME280;3250;42.694;23.278;2023-10-08T08:33:30;95109.66;;;28.00;23.16
6435;BME280;3250;42.694;23.278;2023-10-08T08:36:16;95120.94;;;28.02;23.12
6435;BME280;3250;42.694;23.278;2023-10-08T08:38:41;95111.03;;;27.89;22.40
6435;BME280;3250;42.694;23.278;2023-10-08T08:41:07;95124.78;;;27.62;23.27
6435;BME280;3250;42.694;23.278;2023-10-08T08:43:36;95112.72;;;27.68;23.47
6435;BME280;3250;42.694;23.278;2023-10-08T08:46:05;95105.53;;;27.63;23.62
6435;BME280;3250;42.694;23.278;2023-10-08T08:48:33;95117.69;;;28.23;23.49
6435;BME280;3250;42.694;23.278;2023-10-08T08:51:00;95109.28;;;28.59;23.20
6435;BME280;3250;42.694;23.278;2023-10-08T08:53:25;95109.63;;;28.83;22.32
6435;BME280;3250;42.694;23.278;2023-10-08T08:55:53;95108.00;;;28.73;22.03
6435;BME280;3250;42.694;23.278;2023-10-08T08:58:20;95106.09;;;28.57;22.53
6435;BME280;3250;42.694;23.278;2023-10-08T09:00:47;95094.13;;;28.23;23.29
6435;BME280;3250;42.694;23.278;2023-10-08T09:03:12;95101.59;;;28.18;23.65
6435;BME280;3250;42.694;23.278;2023-10-08T09:05:38;95100.88;;;28.03;23.13
6435;BME280;3250;42.694;23.278;2023-10-08T09:08:06;95111.38;;;27.96;23.38
6435;BME280;3250;42.694;23.278;2023-10-08T09:10:34;95108.06;;;27.99;23.61
6435;BME280;3250;42.694;23.278;2023-10-08T09:13:04;95102.88;;;27.72;23.59
6435;BME280;3250;42.694;23.278;2023-10-08T09:15:31;95103.38;;;27.52;23.93
6435;BME280;3250;42.694;23.278;2023-10-08T09:17:58;95094.38;;;27.56;23.93
6435;BME280;3250;42.694;23.278;2023-10-08T09:20:26;95083.44;;;27.70;23.87
6435;BME280;3250;42.694;23.278;2023-10-08T09:23:13;95097.41;;;27.63;24.55
6435;BME280;3250;42.694;23.278;2023-10-08T09:25:43;95092.56;;;27.52;23.36
6435;BME280;3250;42.694;23.278;2023-10-08T09:28:10;95083.91;;;27.32;24.03
6435;BME280;3250;42.694;23.278;2023-10-08T09:30:38;95084.84;;;27.36;25.01
6435;BME280;3250;42.694;23.278;2023-10-08T09:33:10;95071.75;;;26.99;24.51
6435;BME280;3250;42.694;23.278;2023-10-08T09:35:37;95081.66;;;27.03;25.48
6435;BME280;3250;42.694;23.278;2023-10-08T09:38:04;95086.41;;;26.98;25.00
6435;BME280;3250;42.694;23.278;2023-10-08T09:40:30;95082.47;;;27.04;25.56
6435;BME280;3250;42.694;23.278;2023-10-08T09:42:56;95077.66;;;27.01;24.48
6435;BME280;3250;42.694;23.278;2023-10-08T09:45:22;95074.09;;;26.92;25.75
6435;BME280;3250;42.694;23.278;2023-10-08T09:47:54;95061.63;;;26.60;24.24
6435;BME280;3250;42.694;23.278;2023-10-08T09:50:26;95071.53;;;26.15;25.16
6435;BME280;3250;42.694;23.278;2023-10-08T09:53:01;95058.38;;;25.86;25.98
6435;BME280;3250;42.694;23.278;2023-10-08T09:55:31;95056.69;;;25.63;26.74
6435;BME280;3250;42.694;23.278;2023-10-08T09:57:57;95061.47;;;25.52;26.39
6435;BME280;3250;42.694;23.278;2023-10-08T10:00:23;95065.19;;;25.42;27.02
6435;BME280;3250;42.694;23.278;2023-10-08T10:02:59;95051.66;;;25.29;27.70
6435;BME280;3250;42.694;23.278;2023-10-08T10:05:31;95060.91;;;25.09;27.55
6435;BME280;3250;42.694;23.278;2023-10-08T10:07:57;95056.69;;;24.89;27.42
6435;BME280;3250;42.694;23.278;2023-10-08T10:10:30;95055.63;;;24.71;28.45
6435;BME280;3250;42.694;23.278;2023-10-08T10:13:02;95041.91;;;24.54;28.37
6435;BME280;3250;42.694;23.278;2023-10-08T10:15:28;95037.22;;;24.60;29.73
6435;BME280;3250;42.694;23.278;2023-10-08T10:20:40;95034.19;;;24.99;26.66
6435;BME280;3250;42.694;23.278;2023-10-08T10:23:35;95041.88;;;25.19;27.85
6435;BME280;3250;42.694;23.278;2023-10-08T10:31:39;95018.03;;;25.53;27.88
6435;BME280;3250;42.694;23.278;2023-10-08T10:34:09;95026.22;;;25.62;27.98
6435;BME280;3250;42.694;23.278;2023-10-08T10:36:35;95018.44;;;25.61;28.21
6435;BME280;3250;42.694;23.278;2023-10-08T10:39:02;95008.03;;;25.54;28.48
6435;BME280;3250;42.694;23.278;2023-10-08T10:41:49;95010.94;;;25.44;29.10
6435;BME280;3250;42.694;23.278;2023-10-08T10:44:16;95014.25;;;25.41;29.21
6435;BME280;3250;42.694;23.278;2023-10-08T10:46:42;95005.25;;;25.32;29.31
6435;BME280;3250;42.694;23.278;2023-10-08T10:49:09;95002.66;;;25.27;29.87
6435;BME280;3250;42.694;23.278;2023-10-08T10:51:50;94994.66;;;25.22;30.08
6435;BME280;3250;42.694;23.278;2023-10-08T10:54:23;95001.03;;;25.26;30.12
6435;BME280;3250;42.694;23.278;2023-10-08T10:56:49;94991.06;;;25.26;29.73
6435;BME280;3250;42.694;23.278;2023-10-08T10:59:29;94991.88;;;25.27;30.05
6435;BME280;3250;42.694;23.278;2023-10-08T11:02:02;94982.69;;;25.28;29.39
6435;BME280;3250;42.694;23.278;2023-10-08T11:04:46;94988.47;;;25.35;30.21
6435;BME280;3250;42.694;23.278;2023-10-08T11:07:18;94991.38;;;25.38;29.38
6435;BME280;3250;42.694;23.278;2023-10-08T11:09:51;94980.19;;;25.45;29.31
6435;BME280;3250;42.694;23.278;2023-10-08T11:12:20;94973.88;;;25.36;28.80
6435;BME280;3250;42.694;23.278;2023-10-08T11:14:48;94977.41;;;25.23;29.88
6435;BME280;3250;42.694;23.278;2023-10-08T11:17:22;94978.59;;;25.03;29.64
6435;BME280;3250;42.694;23.278;2023-10-08T11:19:47;94970.41;;;24.94;30.14
6435;BME280;3250;42.694;23.278;2023-10-08T11:22:16;94964.56;;;24.87;29.92
6435;BME280;3250;42.694;23.278;2023-10-08T11:24:46;94959.47;;;24.86;30.12
6435;BME280;3250;42.694;23.278;2023-10-08T11:27:19;94965.09;;;24.89;30.45
6435;BME280;3250;42.694;23.278;2023-10-08T11:29:55;94957.81;;;24.90;30.69
6435;BME280;3250;42.694;23.278;2023-10-08T11:32:24;94956.13;;;24.94;31.08
6435;BME280;3250;42.694;23.278;2023-10-08T11:34:59;94953.44;;;24.94;30.90
6435;BME280;3250;42.694;23.278;2023-10-08T11:37:32;94957.13;;;24.98;31.48
6435;BME280;3250;42.694;23.278;2023-10-08T11:40:02;94956.84;;;24.99;30.91
6435;BME280;3250;42.694;23.278;2023-10-08T11:42:42;94944.75;;;24.97;31.30
6435;BME280;3250;42.694;23.278;2023-10-08T11:45:10;94958.09;;;24.88;31.01
6435;BME280;3250;42.694;23.278;2023-10-08T11:47:45;94964.06;;;24.85;31.83
6435;BME280;3250;42.694;23.278;2023-10-08T11:50:16;94960.88;;;24.83;31.87
6435;BME280;3250;42.694;23.278;2023-10-08T11:52:43;94951.69;;;24.70;31.50
6435;BME280;3250;42.694;23.278;2023-10-08T11:55:09;94955.47;;;24.56;31.90
6435;BME280;3250;42.694;23.278;2023-10-08T11:57:35;94934.84;;;24.32;32.12
6435;BME280;3250;42.694;23.278;2023-10-08T12:00:04;94961.00;;;24.46;32.35
6435;BME280;3250;42.694;23.278;2023-10-08T12:02:47;94942.00;;;24.23;32.19
6435;BME280;3250;42.694;23.278;2023-10-08T12:05:13;94934.44;;;24.25;32.85
6435;BME280;3250;42.694;23.278;2023-10-08T12:07:48;94939.13;;;24.33;33.40
6435;BME280;3250;42.694;23.278;2023-10-08T12:10:14;94945.47;;;24.56;33.24
6435;BME280;3250;42.694;23.278;2023-10-08T12:12:42;94945.72;;;24.73;32.31
6435;BME280;3250;42.694;23.278;2023-10-08T12:15:11;94942.06;;;24.97;32.83
6435;BME280;3250;42.694;23.278;2023-10-08T12:17:37;94946.75;;;25.18;32.16
6435;BME280;3250;42.694;23.278;2023-10-08T12:20:06;94939.66;;;25.36;31.51
6435;BME280;3250;42.694;23.278;2023-10-08T12:22:51;94945.72;;;25.55;31.33
6435;BME280;3250;42.694;23.278;2023-10-08T12:25:19;94955.22;;;25.67;31.12
6435;BME280;3250;42.694;23.278;2023-10-08T12:27:45;94954.72;;;25.51;30.90
6435;BME280;3250;42.694;23.278;2023-10-08T12:30:10;94953.81;;;25.55;31.41
6435;BME280;3250;42.694;23.278;2023-10-08T12:32:36;94955.31;;;25.48;31.69
6435;BME280;3250;42.694;23.278;2023-10-08T12:35:05;94961.13;;;25.41;31.54
6435;BME280;3250;42.694;23.278;2023-10-08T12:37:40;94965.00;;;25.35;31.52
6435;BME280;3250;42.694;23.278;2023-10-08T12:40:07;94964.31;;;25.30;32.22
6435;BME280;3250;42.694;23.278;2023-10-08T12:42:53;94965.31;;;25.20;31.35
6435;BME280;3250;42.694;23.278;2023-10-08T12:45:20;94950.84;;;25.02;31.95
6435;BME280;3250;42.694;23.278;2023-10-08T12:47:50;94941.94;;;24.88;32.04
6435;BME280;3250;42.694;23.278;2023-10-08T12:50:17;94912.50;;;24.64;32.49
6435;BME280;3250;42.694;23.278;2023-10-08T12:52:49;94946.59;;;24.82;32.98
6435;BME280;3250;42.694;23.278;2023-10-08T21:33:47;95229.38;;;20.96;53.27
6435;BME280;3250;42.694;23.278;2023-10-08T21:36:15;95247.06;;;21.02;53.59
6435;BME280;3250;42.694;23.278;2023-10-08T21:38:43;95252.13;;;20.88;53.90
6435;BME280;3250;42.694;23.278;2023-10-08T21:41:10;95234.44;;;20.72;54.17
6435;BME280;3250;42.694;23.278;2023-10-08T21:43:37;95251.06;;;20.89;54.38
6435;BME280;3250;42.694;23.278;2023-10-08T21:46:09;95249.19;;;20.90;54.05
6435;BME280;3250;42.694;23.278;2023-10-08T21:48:34;95260.13;;;20.78;54.24
6435;BME280;3250;42.694;23.278;2023-10-08T21:51:00;95263.06;;;20.66;55.26
6435;BME280;3250;42.694;23.278;2023-10-08T21:53:26;95277.03;;;20.84;54.79
6435;BME280;3250;42.694;23.278;2023-10-08T21:55:52;95275.97;;;20.90;54.11
6435;BME280;3250;42.694;23.278;2023-10-08T21:58:17;95271.69;;;20.84;54.81
6435;BME280;3250;42.694;23.278;2023-10-08T22:00:43;95272.72;;;20.73;55.07
6435;BME280;3250;42.694;23.278;2023-10-08T22:03:12;95279.69;;;20.84;55.17
6435;BME280;3250;42.694;23.278;2023-10-08T22:05:40;95272.16;;;20.70;54.96
6435;BME280;3250;42.694;23.278;2023-10-08T22:08:12;95278.00;;;20.52;55.59
6435;BME280;3250;42.694;23.278;2023-10-08T22:10:40;95275.56;;;20.46;55.95
6435;BME280;3250;42.694;23.278;2023-10-08T22:13:08;95287.81;;;20.37;56.75
6435;BME280;3250;42.694;23.278;2023-10-08T22:15:34;95280.63;;;20.42;55.83
6435;BME280;3250;42.694;23.278;2023-10-08T22:18:09;95274.47;;;20.42;56.62
6435;BME280;3250;42.694;23.278;2023-10-08T22:20:35;95256.44;;;20.22;56.33
6435;BME280;3250;42.694;23.278;2023-10-08T22:23:06;95261.03;;;20.31;56.79
6435;BME280;3250;42.694;23.278;2023-10-08T22:25:34;95263.50;;;20.38;56.34
6435;BME280;3250;42.694;23.278;2023-10-08T22:28:02;95273.66;;;20.41;56.42
6435;BME280;3250;42.694;23.278;2023-10-08T22:30:42;95276.91;;;20.53;55.96
6435;BME280;3250;42.694;23.278;2023-10-08T22:33:08;95274.53;;;20.67;55.74